Terminal Aerodrome Forecast
Issued by NWS Brownsville, TX

Current Version | Previous Version | Text Only | Print | Product List | Glossary On
Versions: 1 2 3 4 5 6 7 8 9 10 11
000
FTUS44 KBRO 271100
TAFBRO
TAF
KBRO 271126Z 2712/2812 15010KT 6SM BR SCT030
     FM271500 17018G25KT P6SM SCT040
     FM280000 19008KT P6SM BKN030
     FM280100 33015G20KT P6SM SHRA OVC010=

USA.gov is the U.S. government's official web portal to all federal, state and local government web resources and services.